Terminal Aerodrome Forecast
Issued by NWS

Home | Current Version | Previous Version | Text Only | Print | Product List | Glossary On
Versions: 1 2 3 4 5 6 7 8 9 10 11 12 13 14 15 16 17 18 19 20 21 22 23 24 25 26
000
FTUS42 KJAX 311359 AAC
TAFCRG
TAF AMD
KCRG 311359Z 3114/0112 25006KT P6SM SCT020 BKN120
      TEMPO 3114/3115 BKN020
     FM311900 16008KT P6SM VCTS SCT025CB BKN040
     FM010000 20004KT P6SM SCT020 BKN100=

USA.gov is the U.S. government's official web portal to all federal, state and local government web resources and services.